createdAt,value
2016-10-19T10:47:14.435Z,45
2016-10-19T10:47:40.064Z,45
2016-10-19T10:48:05.655Z,45
2016-10-19T10:48:31.197Z,40
2016-10-19T10:48:56.784Z,40
2016-10-19T10:49:22.339Z,45
2016-10-19T10:49:47.910Z,45
2016-10-19T10:50:13.484Z,45
2016-10-19T10:50:39.048Z,45
2016-10-19T10:51:04.605Z,45
2016-10-19T10:51:30.168Z,45
2016-10-19T10:51:55.729Z,45
2016-10-19T10:52:21.317Z,40
2016-10-19T10:52:46.886Z,40
2016-10-19T10:53:12.486Z,40
2016-10-19T10:53:38.066Z,50
2016-10-19T10:54:03.636Z,50
2016-10-19T10:54:29.185Z,50
2016-10-19T10:54:54.854Z,50
2016-10-19T10:55:20.437Z,50
2016-10-19T10:55:46.010Z,50
2016-10-19T10:56:11.590Z,50
2016-10-19T10:57:40.443Z,50
2016-10-19T10:58:05.985Z,50
2016-10-19T10:58:31.510Z,50
2016-10-19T10:58:57.063Z,50
2016-10-19T10:59:22.617Z,55
2016-10-19T10:59:48.219Z,55
2016-10-19T11:00:13.733Z,35
2016-10-19T11:00:39.264Z,40
2016-10-19T11:01:04.801Z,50
2016-10-19T11:01:30.357Z,30
2016-10-19T11:01:55.965Z,25
2016-10-19T11:02:21.503Z,25
2016-10-19T11:02:47.059Z,30
2016-10-19T11:03:12.599Z,60
2016-10-19T11:03:38.137Z,60
2016-10-19T11:04:03.682Z,60
2016-10-19T11:04:29.309Z,60
2016-10-19T11:04:54.859Z,60
2016-10-19T11:05:20.382Z,30
2016-10-19T11:05:45.906Z,30
2016-10-19T11:06:11.449Z,30
2016-10-19T11:06:37.062Z,30
2016-10-19T11:07:02.689Z,25
2016-10-19T11:07:28.203Z,20
2016-10-19T11:07:53.776Z,20
2016-10-19T11:08:19.307Z,20
2016-10-19T11:08:44.866Z,20
2016-10-19T11:09:10.445Z,20
2016-10-19T11:09:36.006Z,20
2016-10-19T11:10:01.605Z,20
2016-10-19T11:10:27.256Z,20
2016-10-19T11:10:52.813Z,20
2016-10-19T11:11:18.374Z,15
2016-10-19T11:11:43.941Z,15
2016-10-19T11:12:09.490Z,15
2016-10-19T11:12:35.115Z,15
2016-10-19T11:13:00.674Z,15
2016-10-19T11:13:26.213Z,15
2016-10-19T11:13:51.775Z,15
2016-10-19T11:14:17.329Z,15
2016-10-19T11:14:42.903Z,15
2016-10-19T11:15:08.484Z,15
2016-10-19T11:15:34.063Z,15
2016-10-19T11:15:59.606Z,15
2016-10-19T11:16:25.165Z,10
2016-10-19T11:16:50.702Z,10
2016-10-19T11:17:16.263Z,10
2016-10-19T11:17:41.812Z,10
2016-10-19T11:18:07.366Z,10
2016-10-19T11:18:32.964Z,10
2016-10-19T11:18:58.582Z,10
2016-10-19T11:19:24.196Z,10
2016-10-19T11:19:49.751Z,10
2016-10-19T11:20:15.340Z,10
2016-10-19T11:20:40.875Z,10
2016-10-19T11:21:06.446Z,10
2016-10-19T11:21:32.090Z,10
2016-10-19T11:21:57.665Z,10
2016-10-19T11:22:23.203Z,10
2016-10-19T11:22:48.760Z,10
2016-10-19T11:23:14.310Z,10
2016-10-19T11:23:39.893Z,10
2016-10-19T11:24:05.544Z,10
2016-10-19T11:24:31.095Z,10
2016-10-19T11:24:56.732Z,10
2016-10-19T11:25:22.336Z,10
2016-10-19T11:25:47.889Z,10
2016-10-19T11:26:13.474Z,10
2016-10-19T11:26:39.022Z,10
2016-10-19T11:27:04.586Z,10
2016-10-19T11:27:30.160Z,10
2016-10-19T11:27:55.712Z,10
2016-10-19T11:28:21.260Z,10
2016-10-19T11:28:46.816Z,10
2016-10-19T11:29:12.380Z,10
2016-10-19T11:29:37.937Z,10
2016-10-19T11:30:03.485Z,10
2016-10-19T11:30:29.038Z,10
2016-10-19T11:30:54.610Z,10
2016-10-19T11:31:20.286Z,10
2016-10-19T11:31:45.839Z,10
2016-10-19T11:32:11.415Z,10
2016-10-19T11:32:36.969Z,10
2016-10-19T11:33:02.536Z,10
2016-10-19T11:33:28.078Z,10
2016-10-19T11:34:41.513Z,10
2016-10-19T11:35:07.051Z,10
2016-10-19T11:35:32.660Z,10
2016-10-19T11:38:32.658Z,5
2016-10-19T11:38:58.240Z,5
2016-10-19T11:39:23.831Z,5
2016-10-19T11:39:49.414Z,5
2016-10-19T11:40:14.959Z,5
2016-10-19T11:40:40.600Z,5
2016-10-19T11:41:06.165Z,5
2016-10-19T11:41:31.756Z,5
2016-10-19T11:41:57.326Z,5
2016-10-19T11:42:22.887Z,5
2016-10-19T11:42:48.490Z,5
2016-10-19T11:43:14.160Z,5
2016-10-19T11:43:39.716Z,5
2016-10-19T11:44:05.271Z,5
2016-10-19T11:44:30.851Z,5
2016-10-19T11:45:44.275Z,5
2016-10-19T11:46:09.840Z,5
2016-10-19T11:46:35.395Z,5
2016-10-19T11:47:00.945Z,5
2016-10-19T11:47:26.542Z,5
2016-10-19T11:47:52.131Z,5
2016-10-19T11:48:17.659Z,5
2016-10-19T11:48:43.212Z,5
2016-10-19T11:49:08.772Z,5
2016-10-19T11:49:34.324Z,5
2016-10-19T11:49:59.920Z,5
2016-10-19T11:50:25.502Z,5
2016-10-19T11:50:51.367Z,5
2016-10-19T11:51:16.940Z,5
2016-10-19T11:51:42.496Z,5
2016-10-19T11:52:08.136Z,5
2016-10-19T11:52:33.680Z,5
2016-10-19T11:52:59.237Z,5
2016-10-19T11:53:24.782Z,5
2016-10-19T11:53:50.345Z,5
2016-10-19T11:54:15.890Z,5
2016-10-19T11:55:44.749Z,5
2016-10-19T11:56:10.291Z,5
2016-10-19T11:56:35.881Z,5
2016-10-19T11:57:01.434Z,5
2016-10-19T11:57:26.999Z,5
2016-10-19T11:57:52.561Z,5
2016-10-19T11:58:18.220Z,5
2016-10-19T11:58:43.786Z,5
2016-10-19T11:59:09.351Z,5
2016-10-19T11:59:34.887Z,5
2016-10-19T12:00:00.455Z,5
2016-10-19T12:00:25.998Z,5
2016-10-19T12:00:51.658Z,5
2016-10-19T12:01:17.239Z,5
2016-10-19T12:01:42.773Z,5
2016-10-19T12:02:08.460Z,5
2016-10-19T12:02:33.997Z,5
2016-10-19T12:02:59.549Z,5
2016-10-19T12:03:25.157Z,5
2016-10-19T12:03:50.721Z,5
2016-10-19T12:04:16.276Z,5
2016-10-19T12:04:41.797Z,5
2016-10-19T12:05:07.338Z,5
2016-10-19T12:05:32.888Z,5
2016-10-19T12:05:58.474Z,5
2016-10-19T12:06:24.062Z,5
2016-10-19T12:06:49.610Z,5
2016-10-19T12:07:15.147Z,5
2016-10-19T12:07:40.828Z,5
2016-10-19T12:08:06.392Z,5
2016-10-19T12:08:31.968Z,5
2016-10-19T12:08:57.539Z,5
2016-10-19T12:09:23.115Z,5
2016-10-19T12:09:48.691Z,5
2016-10-19T12:10:14.324Z,5
2016-10-19T12:10:39.887Z,5
2016-10-19T12:11:05.460Z,5
2016-10-19T12:11:31.029Z,5
2016-10-19T12:11:56.582Z,5
2016-10-19T12:12:22.128Z,5
2016-10-19T12:12:47.672Z,5
2016-10-19T12:13:13.247Z,5
2016-10-19T12:13:38.784Z,5
2016-10-19T12:14:04.323Z,5
2016-10-19T12:14:29.872Z,5
2016-10-19T12:14:55.424Z,5
2016-10-19T12:15:20.980Z,5
2016-10-19T12:15:46.523Z,5
2016-10-19T12:16:12.162Z,5
2016-10-19T12:16:37.713Z,5
2016-10-19T12:17:03.302Z,5
2016-10-19T12:17:28.843Z,5
2016-10-19T12:17:54.558Z,5
2016-10-19T12:18:20.203Z,5
2016-10-19T12:18:45.751Z,5
2016-10-19T12:19:11.332Z,5
2016-10-19T12:19:36.898Z,5
2016-10-19T12:20:02.463Z,5
2016-10-19T12:20:28.040Z,5
2016-10-19T12:20:53.734Z,5
2016-10-19T12:21:19.300Z,5
2016-10-19T12:21:44.842Z,5
2016-10-19T12:22:10.472Z,5
2016-10-19T12:22:36.044Z,5
2016-10-19T12:23:01.631Z,5
2016-10-19T12:23:27.231Z,5
2016-10-19T12:23:52.841Z,5
2016-10-19T12:24:18.492Z,5
2016-10-19T12:24:44.129Z,5
2016-10-19T12:25:09.703Z,5
2016-10-19T12:25:35.256Z,5
2016-10-19T12:26:00.823Z,5
2016-10-19T12:26:26.383Z,5
2016-10-19T12:26:51.917Z,5
2016-10-19T12:27:17.489Z,5
2016-10-19T12:27:43.058Z,5
2016-10-19T12:28:08.623Z,5
2016-10-19T12:28:34.179Z,5
2016-10-19T12:28:59.730Z,5
2016-10-19T12:29:25.286Z,5
2016-10-19T12:29:50.833Z,5
2016-10-19T12:30:16.372Z,5
2016-10-19T12:30:41.933Z,5
2016-10-19T12:31:07.485Z,5
2016-10-19T12:31:33.021Z,5
2016-10-19T12:31:58.653Z,5
2016-10-19T12:32:24.222Z,5
2016-10-19T12:33:47.920Z,5
2016-10-19T12:34:13.483Z,5
2016-10-19T12:34:39.023Z,5
2016-10-19T12:35:47.301Z,5
2016-10-19T12:36:12.932Z,5
2016-10-19T12:36:38.537Z,5
2016-10-19T12:37:04.091Z,5
2016-10-19T12:37:29.657Z,5
2016-10-19T12:37:55.215Z,5
2016-10-19T12:38:20.795Z,5
2016-10-19T12:38:46.389Z,5
2016-10-19T12:39:11.957Z,5
2016-10-19T12:39:37.505Z,5
2016-10-19T12:40:03.099Z,5
2016-10-19T12:40:28.673Z,5
2016-10-19T12:41:52.384Z,5
2016-10-19T12:42:17.918Z,5
2016-10-19T12:42:43.526Z,5
2016-10-19T12:43:09.103Z,5
2016-10-19T12:43:34.642Z,5
2016-10-19T12:44:00.349Z,5
2016-10-19T12:44:25.959Z,5
2016-10-19T12:44:51.529Z,5
2016-10-19T12:45:17.141Z,5
2016-10-19T12:45:42.685Z,5
2016-10-19T12:46:08.228Z,5
2016-10-19T12:46:33.782Z,5
2016-10-19T12:46:59.350Z,5
2016-10-19T12:47:24.928Z,5
2016-10-19T12:47:50.483Z,5
2016-10-19T12:48:16.044Z,5
2016-10-19T12:48:41.620Z,5
2016-10-19T12:49:07.221Z,5
2016-10-19T12:49:32.802Z,5
2016-10-19T12:49:58.318Z,10
2016-10-19T12:50:23.918Z,10
2016-10-19T12:50:49.442Z,10
2016-10-19T12:51:15.019Z,5
2016-10-19T12:51:40.544Z,5
2016-10-19T12:52:06.107Z,5
2016-10-19T12:52:31.647Z,5
2016-10-19T12:52:57.212Z,5
2016-10-19T12:53:22.757Z,5
2016-10-19T12:53:48.397Z,5
2016-10-19T12:54:13.946Z,5
2016-10-19T12:54:39.487Z,10
2016-10-19T12:55:05.019Z,10
2016-10-19T12:55:30.560Z,10
2016-10-19T12:55:56.153Z,10
2016-10-19T12:56:21.806Z,10
2016-10-19T12:56:47.358Z,10
2016-10-19T12:57:12.893Z,10
2016-10-19T12:57:38.455Z,10
2016-10-19T12:58:04.005Z,10
2016-10-19T12:58:29.575Z,10
2016-10-19T12:58:55.106Z,10
2016-10-19T12:59:20.634Z,10
2016-10-19T12:59:46.211Z,10
2016-10-19T13:00:11.728Z,15
2016-10-19T13:00:37.304Z,15
2016-10-19T13:01:45.621Z,15
2016-10-19T13:02:11.183Z,15
2016-10-19T13:02:36.769Z,15
2016-10-19T13:03:02.312Z,15
2016-10-19T13:03:27.852Z,15
2016-10-19T13:03:53.421Z,15
2016-10-19T13:04:18.993Z,15
2016-10-19T13:04:44.567Z,10
2016-10-19T13:05:10.231Z,10
2016-10-19T13:05:35.803Z,10
2016-10-19T13:06:01.362Z,15
2016-10-19T13:06:26.924Z,15
2016-10-19T13:06:52.511Z,15
2016-10-19T13:07:18.082Z,15
2016-10-19T13:07:43.652Z,15
2016-10-19T13:08:09.205Z,15
2016-10-19T13:08:34.786Z,15
2016-10-19T13:09:00.358Z,15
2016-10-19T13:09:25.917Z,15
2016-10-19T13:09:51.461Z,15
2016-10-19T13:10:17.054Z,15
2016-10-19T13:10:42.715Z,15
2016-10-19T13:11:08.283Z,15
2016-10-19T13:11:33.828Z,15
2016-10-19T13:11:59.415Z,15
2016-10-19T13:12:24.991Z,15
2016-10-19T13:12:50.564Z,15
2016-10-19T13:13:16.104Z,10
2016-10-19T13:13:41.685Z,10
2016-10-19T13:14:07.245Z,10
2016-10-19T13:14:32.804Z,10
2016-10-19T13:14:58.350Z,10
2016-10-19T13:15:23.924Z,10
2016-10-19T13:15:49.475Z,10
2016-10-19T13:16:15.125Z,10
2016-10-19T13:16:40.684Z,10
2016-10-19T13:17:06.250Z,10
2016-10-19T13:17:31.794Z,10
2016-10-19T13:17:57.680Z,10
2016-10-19T13:18:23.241Z,10
2016-10-19T13:18:48.821Z,15
2016-10-19T13:19:14.388Z,15
2016-10-19T13:19:39.945Z,15
2016-10-19T13:20:05.506Z,15
2016-10-19T13:20:31.042Z,15
2016-10-19T13:20:56.666Z,15
2016-10-19T13:21:22.213Z,15
2016-10-19T13:21:47.898Z,15
2016-10-19T13:22:13.498Z,15
2016-10-19T13:22:39.092Z,15
2016-10-19T13:23:04.666Z,15
2016-10-19T13:23:30.225Z,15
2016-10-19T13:23:55.917Z,15
2016-10-19T13:24:21.484Z,15
2016-10-19T13:24:47.037Z,15
2016-10-19T13:25:12.604Z,15
2016-10-19T13:25:38.183Z,15
2016-10-19T13:26:03.731Z,15
2016-10-19T13:26:29.286Z,15
2016-10-19T13:26:54.848Z,15
2016-10-19T13:27:20.385Z,15
2016-10-19T13:27:45.952Z,15
2016-10-19T13:28:11.531Z,15
2016-10-19T13:28:37.067Z,15
2016-10-19T13:29:02.625Z,15
2016-10-19T13:29:28.171Z,15
2016-10-19T13:29:53.728Z,15
2016-10-19T13:30:19.371Z,15
2016-10-19T13:30:44.930Z,15
2016-10-19T13:31:10.475Z,15
2016-10-19T13:31:36.057Z,15
2016-10-19T13:32:01.610Z,15
2016-10-19T13:32:27.176Z,15
2016-10-19T13:32:52.753Z,15
2016-10-19T13:33:18.295Z,15
2016-10-19T13:33:43.851Z,15
2016-10-19T13:34:09.454Z,15
2016-10-19T13:34:34.992Z,15
2016-10-19T13:35:48.470Z,15
2016-10-19T13:36:14.018Z,15
2016-10-19T13:36:39.606Z,15
2016-10-19T13:37:05.164Z,15
2016-10-19T13:37:30.704Z,15
2016-10-19T13:37:56.395Z,15
2016-10-19T13:38:21.952Z,15
2016-10-19T13:38:47.511Z,15
2016-10-19T13:39:13.142Z,15
2016-10-19T13:39:38.695Z,15
2016-10-19T13:40:04.267Z,15
2016-10-19T13:40:29.814Z,15
2016-10-19T13:40:55.394Z,15
2016-10-19T13:41:20.967Z,15
2016-10-19T13:41:46.545Z,15
2016-10-19T13:42:12.095Z,15
2016-10-19T13:42:37.721Z,15
2016-10-19T13:43:03.285Z,15
2016-10-19T13:43:28.859Z,15
2016-10-19T13:43:54.415Z,15
2016-10-19T13:44:19.966Z,15
2016-10-19T13:44:45.636Z,15
2016-10-19T13:45:11.212Z,15
2016-10-19T13:45:36.778Z,15
2016-10-19T13:46:02.406Z,20
2016-10-19T13:46:27.993Z,20
2016-10-19T13:46:53.564Z,20
2016-10-19T13:47:19.113Z,20
2016-10-19T13:47:44.698Z,20
2016-10-19T13:48:10.356Z,20
2016-10-19T13:48:35.930Z,20
2016-10-19T13:49:01.485Z,20
2016-10-19T13:49:27.038Z,25
2016-10-19T13:49:52.615Z,25
2016-10-19T13:50:18.165Z,25
2016-10-19T13:50:43.725Z,25
2016-10-19T13:51:09.317Z,25
2016-10-19T13:51:34.894Z,25
2016-10-19T13:52:00.543Z,25
2016-10-19T13:52:26.106Z,25
2016-10-19T13:52:51.687Z,25
2016-10-19T13:53:17.352Z,25
2016-10-19T13:53:42.920Z,30
2016-10-19T13:54:08.489Z,30
2016-10-19T13:54:34.039Z,30
2016-10-19T13:54:59.618Z,30
2016-10-19T13:55:25.196Z,30
2016-10-19T13:55:50.759Z,30
2016-10-19T13:56:16.310Z,30
2016-10-19T13:56:41.887Z,30
2016-10-19T13:57:07.421Z,30
2016-10-19T13:57:33.021Z,30
2016-10-19T13:57:58.582Z,35
2016-10-19T13:58:24.132Z,35
2016-10-19T13:58:49.695Z,35
2016-10-19T13:59:15.232Z,35
2016-10-19T13:59:40.796Z,35
2016-10-19T14:00:06.361Z,35
2016-10-19T14:00:31.917Z,35
2016-10-19T14:00:57.507Z,35
2016-10-19T14:01:23.094Z,35
2016-10-19T14:01:48.710Z,40
2016-10-19T14:02:14.287Z,40
2016-10-19T14:02:39.835Z,40
2016-10-19T14:03:05.443Z,40
2016-10-19T14:03:31.010Z,40
2016-10-19T14:03:56.603Z,40
2016-10-19T14:04:22.205Z,40
2016-10-19T14:04:47.844Z,40
2016-10-19T14:05:13.418Z,40
2016-10-19T14:05:38.954Z,40
2016-10-19T14:06:04.512Z,40
2016-10-19T14:06:30.082Z,40
2016-10-19T14:06:55.638Z,40
2016-10-19T14:07:21.215Z,40
2016-10-19T14:07:46.768Z,35
2016-10-19T14:08:12.323Z,35
2016-10-19T14:08:37.938Z,35
2016-10-19T14:09:03.513Z,35
2016-10-19T14:09:29.089Z,35
2016-10-19T14:09:54.640Z,35
2016-10-19T14:10:20.235Z,30
2016-10-19T14:10:45.811Z,35
2016-10-19T14:11:11.402Z,30
2016-10-19T14:11:36.955Z,35
2016-10-19T14:12:02.573Z,35
2016-10-19T14:12:28.130Z,30
2016-10-19T14:12:53.682Z,30
2016-10-19T14:13:19.221Z,30
2016-10-19T14:13:44.784Z,30
2016-10-19T14:14:10.331Z,30
2016-10-19T14:14:35.947Z,30
2016-10-19T14:15:01.515Z,30
2016-10-19T14:15:27.079Z,30
2016-10-19T14:15:52.779Z,30
2016-10-19T14:16:18.324Z,30
2016-10-19T14:16:43.897Z,30
2016-10-19T14:17:09.460Z,40
2016-10-19T14:17:35.015Z,35
2016-10-19T14:18:00.580Z,30
2016-10-19T14:18:26.164Z,30
2016-10-19T14:18:51.700Z,30
2016-10-19T14:19:17.309Z,25
2016-10-19T14:19:42.856Z,30
2016-10-19T14:20:08.413Z,45
2016-10-19T14:20:34.100Z,45
2016-10-19T14:20:59.660Z,35
2016-10-19T14:21:25.212Z,40
2016-10-19T14:21:50.764Z,40
2016-10-19T14:22:16.316Z,40
2016-10-19T14:22:41.889Z,35
2016-10-19T14:23:07.458Z,35
2016-10-19T14:23:33.021Z,30
2016-10-19T14:23:58.663Z,35
2016-10-19T14:24:24.278Z,35
2016-10-19T14:24:49.820Z,35
2016-10-19T14:25:15.392Z,35
2016-10-19T14:25:40.952Z,40
2016-10-19T14:26:06.482Z,40
2016-10-19T14:26:32.069Z,40
2016-10-19T14:26:58.453Z,40
2016-10-19T14:27:24.019Z,40
2016-10-19T14:28:47.710Z,35
2016-10-19T14:29:13.264Z,35
2016-10-19T14:29:38.847Z,30
2016-10-19T14:30:04.391Z,30
2016-10-19T14:30:29.973Z,25
2016-10-19T14:30:55.638Z,20
2016-10-19T14:31:21.181Z,20
2016-10-19T14:32:49.906Z,10
2016-10-19T14:33:15.623Z,10
2016-10-19T14:33:41.173Z,5
2016-10-19T14:34:06.752Z,5
2016-10-19T14:34:32.343Z,5
2016-10-19T14:34:57.884Z,5
2016-10-19T14:35:23.433Z,5
2016-10-19T14:35:48.982Z,5
2016-10-19T14:36:14.553Z,5
2016-10-19T14:36:40.090Z,5
2016-10-19T14:37:05.757Z,5
2016-10-19T14:37:31.307Z,5
2016-10-19T14:37:56.870Z,5
2016-10-19T14:38:22.457Z,5
2016-10-19T14:38:48.073Z,5
2016-10-19T14:39:13.634Z,5
2016-10-19T14:39:39.189Z,5
2016-10-19T14:42:35.407Z,10
2016-10-19T14:43:01.011Z,10
2016-10-19T14:43:26.561Z,10
2016-10-19T14:43:52.136Z,10
2016-10-19T14:44:17.829Z,10
2016-10-19T14:44:43.571Z,10
2016-10-19T14:45:09.136Z,10
2016-10-19T14:45:34.744Z,10
2016-10-19T14:46:00.294Z,10
2016-10-19T14:46:25.869Z,10
2016-10-19T14:46:51.417Z,10
2016-10-19T14:47:16.995Z,10
2016-10-19T14:47:42.561Z,10
2016-10-19T14:48:08.120Z,10
2016-10-19T14:48:33.754Z,10
2016-10-19T14:48:59.304Z,10
2016-10-19T14:49:24.887Z,10
2016-10-19T14:49:50.438Z,10
2016-10-19T14:50:15.982Z,10
2016-10-19T14:50:41.536Z,10
2016-10-19T14:51:07.091Z,10
2016-10-19T14:51:32.651Z,10
2016-10-19T14:51:58.203Z,10
2016-10-19T14:52:23.770Z,10
2016-10-19T14:52:49.361Z,10
2016-10-19T14:53:14.936Z,10
2016-10-19T14:53:40.574Z,10
2016-10-19T14:54:06.127Z,10
2016-10-19T14:54:31.694Z,10
2016-10-19T14:54:57.275Z,10
2016-10-19T14:55:22.835Z,10
2016-10-19T14:55:48.418Z,10
2016-10-19T14:56:13.984Z,10
2016-10-19T14:56:39.547Z,10
2016-10-19T14:57:05.083Z,10
2016-10-19T14:57:30.676Z,10
2016-10-19T14:57:56.222Z,10
2016-10-19T14:58:21.815Z,10
2016-10-19T14:58:47.379Z,10
2016-10-19T14:59:12.964Z,10
2016-10-19T14:59:38.548Z,10
2016-10-19T15:00:04.143Z,10
2016-10-19T15:00:29.654Z,10
2016-10-19T15:00:55.185Z,10
2016-10-19T15:01:20.740Z,10
2016-10-19T15:01:46.257Z,10
2016-10-19T15:02:11.832Z,10
2016-10-19T15:02:37.471Z,10
2016-10-19T15:03:03.025Z,10
2016-10-19T15:03:28.582Z,10
2016-10-19T15:03:54.262Z,10
2016-10-19T15:04:19.819Z,10
2016-10-19T15:04:45.379Z,10
2016-10-19T15:05:10.940Z,10
2016-10-19T15:05:36.523Z,10
2016-10-19T15:06:02.097Z,10
2016-10-19T15:06:27.778Z,10
2016-10-19T15:06:53.316Z,10
2016-10-19T15:07:18.900Z,10
2016-10-19T15:07:44.489Z,10
2016-10-19T15:08:10.167Z,10
2016-10-19T15:08:35.750Z,10
2016-10-19T15:09:01.320Z,10
2016-10-19T15:09:26.906Z,10
2016-10-19T15:09:52.468Z,10
2016-10-19T15:10:18.030Z,5
2016-10-19T15:10:43.660Z,5
2016-10-19T15:11:09.223Z,5
2016-10-19T15:11:34.786Z,5
2016-10-19T15:12:53.468Z,5
2016-10-19T15:13:19.017Z,5
2016-10-19T15:13:44.567Z,5
2016-10-19T15:14:10.122Z,5
2016-10-19T15:14:35.792Z,5
2016-10-19T15:15:01.374Z,5
2016-10-19T15:15:26.925Z,5
2016-10-19T15:16:45.534Z,5
2016-10-19T15:17:11.139Z,5
2016-10-19T15:17:36.674Z,5
2016-10-19T15:18:02.247Z,5
2016-10-19T15:18:27.795Z,5
2016-10-19T15:18:53.363Z,5
2016-10-19T15:19:19.083Z,5
2016-10-19T15:19:44.642Z,5
2016-10-19T15:20:10.233Z,5
2016-10-19T15:20:35.731Z,5
2016-10-19T15:21:02.107Z,5
2016-10-19T15:21:27.683Z,5
2016-10-19T15:21:53.242Z,5
2016-10-19T15:22:18.791Z,5
2016-10-19T15:22:44.340Z,5
2016-10-19T15:23:09.878Z,5
2016-10-19T15:23:35.442Z,5
2016-10-19T15:24:01.006Z,5
2016-10-19T15:24:26.576Z,5
2016-10-19T15:24:52.148Z,5
2016-10-19T15:25:17.682Z,5
2016-10-19T15:25:43.219Z,5
2016-10-19T15:26:08.767Z,5
2016-10-19T15:26:34.416Z,5
2016-10-19T15:26:59.987Z,5
2016-10-19T15:27:25.541Z,0
2016-10-19T15:27:51.078Z,0
2016-10-19T15:28:16.722Z,0
2016-10-19T15:28:42.250Z,0
2016-10-19T15:29:07.782Z,0
2016-10-19T15:29:33.320Z,0
2016-10-19T15:29:58.872Z,0
2016-10-19T15:30:24.466Z,0
2016-10-19T15:30:50.029Z,0
2016-10-19T15:31:15.555Z,0
2016-10-19T15:31:41.094Z,0
2016-10-19T15:32:06.633Z,0
2016-10-19T15:32:32.187Z,0
2016-10-19T15:32:57.755Z,0
2016-10-19T15:33:23.294Z,0
2016-10-19T15:33:48.848Z,0
2016-10-19T15:34:14.395Z,0
2016-10-19T15:34:39.956Z,0
2016-10-19T15:35:05.644Z,0
2016-10-19T15:35:31.182Z,0
2016-10-19T15:35:56.732Z,0
2016-10-19T15:36:22.383Z,0
2016-10-19T15:36:48.039Z,0
2016-10-19T15:37:13.613Z,0
2016-10-19T15:37:39.171Z,0
2016-10-19T15:38:04.846Z,0
2016-10-19T15:38:30.409Z,0
2016-10-19T15:38:55.961Z,0
2016-10-19T15:39:21.505Z,0
2016-10-19T15:39:47.060Z,0
2016-10-19T15:40:12.666Z,0
2016-10-19T15:40:38.227Z,0
2016-10-19T15:41:03.786Z,0
2016-10-19T15:41:29.352Z,0
2016-10-19T15:41:54.926Z,0
2016-10-19T15:42:20.463Z,0
2016-10-19T15:42:46.053Z,0
2016-10-19T15:43:11.612Z,0
2016-10-19T15:43:37.175Z,0
2016-10-19T15:44:02.724Z,0
2016-10-19T15:44:28.275Z,0
2016-10-19T15:44:53.838Z,0
2016-10-19T15:45:19.532Z,0
2016-10-19T15:45:45.094Z,0
2016-10-19T15:46:10.645Z,0
2016-10-19T15:46:36.228Z,0
2016-10-19T15:47:01.761Z,0
2016-10-19T15:47:27.365Z,0
2016-10-19T15:47:52.951Z,0
2016-10-19T15:48:18.554Z,0
2016-10-19T15:48:44.114Z,0
2016-10-19T15:49:09.785Z,0
2016-10-19T15:49:35.431Z,0
2016-10-19T15:50:00.983Z,0
2016-10-19T15:50:26.556Z,0
2016-10-19T15:50:52.136Z,0
2016-10-19T15:51:17.732Z,0
2016-10-19T15:51:43.282Z,0
2016-10-19T15:52:08.858Z,0
2016-10-19T15:52:34.453Z,0
2016-10-19T15:53:00.002Z,0
2016-10-19T15:53:25.554Z,0
2016-10-19T15:53:51.886Z,0
2016-10-19T15:54:17.490Z,0
2016-10-19T15:54:43.061Z,0
2016-10-19T15:55:08.614Z,0
2016-10-19T15:55:34.168Z,0
2016-10-19T15:55:59.866Z,0
2016-10-19T15:56:25.495Z,0
2016-10-19T15:56:51.077Z,0
2016-10-19T15:57:16.648Z,0
2016-10-19T15:57:42.223Z,0
2016-10-19T15:58:07.802Z,0
2016-10-19T15:58:33.621Z,0
2016-10-19T15:58:59.209Z,0
2016-10-19T15:59:25.138Z,0
2016-10-19T15:59:50.723Z,0
2016-10-19T16:00:16.299Z,0
2016-10-19T16:00:42.161Z,0
2016-10-19T16:01:07.935Z,0
2016-10-19T16:01:33.664Z,0
2016-10-19T16:01:59.321Z,0
2016-10-19T16:02:25.013Z,0
2016-10-19T16:02:50.736Z,0
2016-10-19T16:03:16.316Z,0
2016-10-19T16:03:41.888Z,0
2016-10-19T16:04:07.496Z,0
2016-10-19T16:04:33.031Z,0
2016-10-19T16:05:46.429Z,0
2016-10-19T16:06:11.985Z,0
2016-10-19T16:06:37.696Z,0
2016-10-19T16:07:03.284Z,0
2016-10-19T16:07:28.867Z,0
2016-10-19T16:07:54.448Z,0
2016-10-19T16:08:20.015Z,0
2016-10-19T16:08:46.896Z,0
2016-10-19T16:09:12.662Z,0
2016-10-19T16:09:38.219Z,0
2016-10-19T16:10:03.960Z,0
2016-10-19T16:10:29.688Z,0
2016-10-19T16:10:55.362Z,0
2016-10-19T16:11:21.056Z,0
2016-10-19T16:11:47.020Z,0
2016-10-19T16:12:12.680Z,0
2016-10-19T16:12:38.442Z,0
2016-10-19T16:13:04.224Z,0
2016-10-19T16:13:29.854Z,0
2016-10-19T16:13:55.488Z,0
2016-10-19T16:14:21.029Z,0
2016-10-19T16:14:46.584Z,0
2016-10-19T16:15:12.118Z,0
2016-10-19T16:15:37.683Z,0
2016-10-19T16:16:03.220Z,0
2016-10-19T16:16:28.766Z,0
2016-10-19T16:16:54.326Z,0
2016-10-19T16:17:19.905Z,0
2016-10-19T16:17:45.472Z,0
2016-10-19T16:18:11.123Z,0
2016-10-19T16:18:36.761Z,0
2016-10-19T16:19:02.290Z,0
2016-10-19T16:19:27.838Z,0
2016-10-19T16:19:53.396Z,0
2016-10-19T16:20:18.947Z,0
2016-10-19T16:20:44.548Z,0
2016-10-19T16:21:10.092Z,0
2016-10-19T16:21:35.629Z,0
2016-10-19T16:22:01.272Z,0
2016-10-19T16:22:26.839Z,0
2016-10-19T16:22:52.402Z,0
2016-10-19T16:23:17.983Z,0
2016-10-19T16:23:43.531Z,0
2016-10-19T16:24:09.196Z,0
2016-10-19T16:24:34.783Z,0
2016-10-19T16:25:00.350Z,0
2016-10-19T16:25:25.901Z,0
2016-10-19T16:26:49.666Z,0
2016-10-19T16:27:15.340Z,0
2016-10-19T16:27:40.961Z,0
2016-10-19T16:28:06.560Z,0
2016-10-19T16:28:32.164Z,0
2016-10-19T16:28:57.766Z,0
2016-10-19T16:29:23.356Z,0
2016-10-19T16:29:48.910Z,0
2016-10-19T16:30:14.601Z,0
2016-10-19T16:30:40.166Z,0
2016-10-19T16:31:05.903Z,0
2016-10-19T16:31:31.450Z,0
2016-10-19T16:31:56.988Z,0
2016-10-19T16:32:22.553Z,0
2016-10-19T16:32:48.169Z,0
2016-10-19T16:33:13.762Z,0
2016-10-19T16:33:39.300Z,0
2016-10-19T16:34:04.849Z,0
2016-10-19T16:34:30.612Z,0
2016-10-19T16:34:56.356Z,0
2016-10-19T16:35:21.933Z,0
2016-10-19T16:35:47.508Z,0
2016-10-19T16:36:13.086Z,0
2016-10-19T16:36:38.671Z,0
2016-10-19T16:37:04.394Z,0
2016-10-19T16:37:29.961Z,0
2016-10-19T16:37:55.536Z,0
2016-10-19T16:38:21.272Z,0
2016-10-19T16:38:46.841Z,0
2016-10-19T16:39:12.386Z,0
2016-10-19T16:39:37.955Z,0
2016-10-19T16:40:03.511Z,0
2016-10-19T16:40:29.047Z,0
2016-10-19T16:40:54.616Z,0
2016-10-19T16:41:20.181Z,0
2016-10-19T16:41:45.803Z,0
2016-10-19T16:42:11.362Z,0
2016-10-19T16:42:37.023Z,0
2016-10-19T16:43:02.613Z,0
2016-10-19T16:43:28.165Z,0
2016-10-19T16:43:53.741Z,0
2016-10-19T16:44:19.294Z,0
2016-10-19T16:44:44.891Z,0
2016-10-19T16:45:10.645Z,0
2016-10-19T16:45:36.232Z,0
2016-10-19T16:46:54.895Z,0
2016-10-19T16:47:20.501Z,0
2016-10-19T16:47:46.142Z,0
2016-10-19T16:48:11.730Z,0
2016-10-19T16:48:37.310Z,0
2016-10-19T16:49:02.915Z,0
2016-10-19T16:49:28.650Z,0
2016-10-19T16:49:54.315Z,0
2016-10-19T16:50:20.056Z,0
2016-10-19T16:50:45.682Z,0
2016-10-19T16:51:11.676Z,0
2016-10-19T16:51:37.387Z,0
2016-10-19T16:52:02.947Z,0
2016-10-19T16:52:28.529Z,0
2016-10-19T16:52:54.125Z,0
2016-10-19T16:53:19.786Z,0
2016-10-19T16:53:45.359Z,0
2016-10-19T16:54:11.042Z,0
2016-10-19T16:54:36.742Z,0
2016-10-19T16:55:02.403Z,0
2016-10-19T16:55:28.049Z,0
2016-10-19T16:55:53.758Z,0
2016-10-19T16:56:19.313Z,0
2016-10-19T16:56:45.004Z,0
2016-10-19T16:57:10.580Z,0
2016-10-19T16:57:36.347Z,0
2016-10-19T16:58:01.951Z,0
2016-10-19T16:58:27.526Z,0
2016-10-19T16:58:53.083Z,0
2016-10-19T16:59:18.649Z,0
2016-10-19T16:59:44.291Z,0
2016-10-19T17:00:09.897Z,0
2016-10-19T17:00:35.444Z,0
2016-10-19T17:01:01.179Z,0
2016-10-19T17:01:27.196Z,0
2016-10-19T17:01:52.847Z,0
2016-10-19T17:02:18.412Z,0
2016-10-19T17:02:43.954Z,0
2016-10-19T17:03:09.526Z,0
2016-10-19T17:03:35.087Z,0
2016-10-19T17:04:00.697Z,0
2016-10-19T17:04:26.270Z,0
2016-10-19T17:04:51.844Z,0
2016-10-19T17:05:17.402Z,0
2016-10-19T17:05:43.026Z,0
2016-10-19T17:06:08.672Z,0
2016-10-19T17:06:34.254Z,0
2016-10-19T17:06:59.905Z,0
2016-10-19T17:07:25.467Z,0
2016-10-19T17:07:51.168Z,0
2016-10-19T17:08:16.897Z,0
2016-10-19T17:08:42.478Z,0
2016-10-19T17:09:08.068Z,0
2016-10-19T17:09:33.622Z,0
2016-10-19T17:09:59.961Z,0
2016-10-19T17:10:25.571Z,0
2016-10-19T17:10:51.163Z,0
2016-10-19T17:11:16.788Z,0
2016-10-19T17:11:42.377Z,0
2016-10-19T17:12:07.909Z,0
2016-10-19T17:12:33.548Z,0
2016-10-19T17:12:59.201Z,0
2016-10-19T17:13:24.790Z,0
2016-10-19T17:13:50.343Z,0
2016-10-19T17:14:15.952Z,0
2016-10-19T17:14:41.497Z,0
2016-10-19T17:15:07.107Z,0
2016-10-19T17:15:32.714Z,0
2016-10-19T17:15:58.316Z,0
2016-10-19T17:16:23.944Z,0
2016-10-19T17:18:50.885Z,0
2016-10-19T17:19:16.451Z,0
2016-10-19T17:19:42.004Z,0
2016-10-19T17:20:07.581Z,0
2016-10-19T17:20:33.141Z,0